sensor_id;sensor_type;location;lat;lon;timestamp;pressure;altitude;pressure_sealevel;temperature;humidity
53758;BME280;39674;59.860;30.672;2023-07-13T00:00:44;100303.19;;;14.26;90.16
53758;BME280;39674;59.860;30.672;2023-07-13T00:03:13;100267.81;;;14.02;89.72
53758;BME280;39674;59.860;30.672;2023-07-13T00:05:44;100267.91;;;14.00;90.34
53758;BME280;39674;59.860;30.672;2023-07-13T00:08:15;100263.41;;;13.89;92.72
53758;BME280;39674;59.860;30.672;2023-07-13T00:10:48;100212.06;;;13.64;91.83
53758;BME280;39674;59.860;30.672;2023-07-13T00:13:26;100180.94;;;13.42;89.47
53758;BME280;39674;59.860;30.672;2023-07-13T00:16:01;100254.44;;;13.90;88.71
53758;BME280;39674;59.860;30.672;2023-07-13T00:18:34;100247.47;;;13.89;89.96
53758;BME280;39674;59.860;30.672;2023-07-13T00:21:29;100259.84;;;14.02;89.35
53758;BME280;39674;59.860;30.672;2023-07-13T00:24:07;100244.38;;;13.95;88.03
53758;BME280;39674;59.860;30.672;2023-07-13T00:26:51;100268.31;;;14.07;88.33
53758;BME280;39674;59.860;30.672;2023-07-13T00:29:20;100247.72;;;13.98;90.58
53758;BME280;39674;59.860;30.672;2023-07-13T00:31:52;100224.44;;;13.77;88.50
53758;BME280;39674;59.860;30.672;2023-07-13T00:34:25;100239.72;;;13.86;89.64
53758;BME280;39674;59.860;30.672;2023-07-13T00:37:02;100239.97;;;13.83;91.06
53758;BME280;39674;59.860;30.672;2023-07-13T00:39:34;100277.88;;;14.09;90.78
53758;BME280;39674;59.860;30.672;2023-07-13T00:42:04;100233.31;;;13.89;89.73
53758;BME280;39674;59.860;30.672;2023-07-13T00:44:39;100285.03;;;14.20;91.46
53758;BME280;39674;59.860;30.672;2023-07-13T00:47:12;100208.09;;;13.83;91.78
53758;BME280;39674;59.860;30.672;2023-07-13T00:49:44;100227.44;;;13.96;90.97
53758;BME280;39674;59.860;30.672;2023-07-13T00:52:16;100186.06;;;13.70;90.48
53758;BME280;39674;59.860;30.672;2023-07-13T00:54:49;100241.34;;;14.00;91.41
53758;BME280;39674;59.860;30.672;2023-07-13T00:57:20;100279.50;;;14.23;90.55
53758;BME280;39674;59.860;30.672;2023-07-13T00:59:58;100269.72;;;14.24;91.21
53758;BME280;39674;59.860;30.672;2023-07-13T01:02:47;100192.25;;;13.82;90.29
53758;BME280;39674;59.860;30.672;2023-07-13T01:05:21;100181.16;;;13.76;88.94
53758;BME280;39674;59.860;30.672;2023-07-13T01:07:53;100259.19;;;14.22;90.00
53758;BME280;39674;59.860;30.672;2023-07-13T01:10:33;100216.75;;;13.98;90.79
53758;BME280;39674;59.860;30.672;2023-07-13T01:13:25;100205.72;;;13.91;94.22
53758;BME280;39674;59.860;30.672;2023-07-13T01:16:11;100252.59;;;14.28;91.28
53758;BME280;39674;59.860;30.672;2023-07-13T01:18:51;100149.03;;;13.44;92.73
53758;BME280;39674;59.860;30.672;2023-07-13T01:21:28;100211.25;;;13.88;92.82
53758;BME280;39674;59.860;30.672;2023-07-13T01:24:01;100193.28;;;13.68;92.97
53758;BME280;39674;59.860;30.672;2023-07-13T01:26:32;100127.78;;;13.31;93.67
53758;BME280;39674;59.860;30.672;2023-07-13T01:32:03;100254.09;;;14.08;93.63
53758;BME280;39674;59.860;30.672;2023-07-13T01:34:38;100189.09;;;13.76;94.27
53758;BME280;39674;59.860;30.672;2023-07-13T01:37:14;100250.22;;;14.12;95.19
53758;BME280;39674;59.860;30.672;2023-07-13T01:39:48;100146.13;;;13.47;91.68
53758;BME280;39674;59.860;30.672;2023-07-13T01:42:20;100180.75;;;13.70;91.29
53758;BME280;39674;59.860;30.672;2023-07-13T01:44:53;100205.00;;;13.89;91.01
53758;BME280;39674;59.860;30.672;2023-07-13T01:47:26;100148.84;;;13.58;94.91
53758;BME280;39674;59.860;30.672;2023-07-13T01:50:03;100207.88;;;13.86;94.21
53758;BME280;39674;59.860;30.672;2023-07-13T01:52:37;100185.31;;;13.68;94.88
53758;BME280;39674;59.860;30.672;2023-07-13T01:55:08;100261.53;;;14.03;96.55
53758;BME280;39674;59.860;30.672;2023-07-13T01:57:40;100198.88;;;13.76;96.69
53758;BME280;39674;59.860;30.672;2023-07-13T02:00:12;100173.91;;;13.54;97.72
53758;BME280;39674;59.860;30.672;2023-07-13T02:02:50;100247.66;;;13.99;98.11
53758;BME280;39674;59.860;30.672;2023-07-13T02:05:20;100237.13;;;13.98;97.85
53758;BME280;39674;59.860;30.672;2023-07-13T02:07:58;100194.91;;;13.82;98.74
53758;BME280;39674;59.860;30.672;2023-07-13T02:10:28;100198.53;;;13.80;98.54
53758;BME280;39674;59.860;30.672;2023-07-13T02:13:00;100189.22;;;13.75;97.79
53758;BME280;39674;59.860;30.672;2023-07-13T02:15:31;100214.88;;;13.87;97.96
53758;BME280;39674;59.860;30.672;2023-07-13T02:18:08;100232.25;;;13.91;99.37
53758;BME280;39674;59.860;30.672;2023-07-13T02:20:38;100180.75;;;13.70;98.86
53758;BME280;39674;59.860;30.672;2023-07-13T02:23:10;100234.88;;;14.04;97.65
53758;BME280;39674;59.860;30.672;2023-07-13T02:25:55;100197.03;;;13.89;96.16
53758;BME280;39674;59.860;30.672;2023-07-13T02:28:25;100222.84;;;14.11;95.60
53758;BME280;39674;59.860;30.672;2023-07-13T02:30:55;100147.22;;;13.69;98.51
53758;BME280;39674;59.860;30.672;2023-07-13T02:33:27;100197.53;;;13.94;97.86
53758;BME280;39674;59.860;30.672;2023-07-13T02:35:59;100190.72;;;13.90;100.00
53758;BME280;39674;59.860;30.672;2023-07-13T02:38:51;100132.22;;;13.56;99.92
53758;BME280;39674;59.860;30.672;2023-07-13T02:41:22;100153.78;;;13.76;96.99
53758;BME280;39674;59.860;30.672;2023-07-13T02:43:52;100144.56;;;13.69;93.04
53758;BME280;39674;59.860;30.672;2023-07-13T02:46:23;100234.88;;;14.28;92.32
53758;BME280;39674;59.860;30.672;2023-07-13T02:48:56;100178.72;;;13.98;91.41
53758;BME280;39674;59.860;30.672;2023-07-13T02:51:28;100224.66;;;14.22;90.45
53758;BME280;39674;59.860;30.672;2023-07-13T02:54:05;100235.56;;;14.31;91.25
53758;BME280;39674;59.860;30.672;2023-07-13T02:56:35;100250.09;;;14.38;89.21
53758;BME280;39674;59.860;30.672;2023-07-13T02:59:09;100251.78;;;14.39;88.07
53758;BME280;39674;59.860;30.672;2023-07-13T03:01:40;100218.97;;;14.16;86.53
53758;BME280;39674;59.860;30.672;2023-07-13T03:04:14;100206.50;;;14.05;88.13
53758;BME280;39674;59.860;30.672;2023-07-13T03:06:48;100261.28;;;14.54;86.83
53758;BME280;39674;59.860;30.672;2023-07-13T03:09:22;100196.63;;;14.07;84.59
53758;BME280;39674;59.860;30.672;2023-07-13T03:12:02;100268.72;;;14.49;83.85
53758;BME280;39674;59.860;30.672;2023-07-13T03:14:36;100254.72;;;14.47;83.34
53758;BME280;39674;59.860;30.672;2023-07-13T03:17:07;100255.44;;;14.49;83.63
53758;BME280;39674;59.860;30.672;2023-07-13T03:19:40;100211.91;;;14.27;83.90
53758;BME280;39674;59.860;30.672;2023-07-13T03:22:12;100182.00;;;14.12;84.22
53758;BME280;39674;59.860;30.672;2023-07-13T03:24:44;100202.00;;;14.29;84.60
53758;BME280;39674;59.860;30.672;2023-07-13T03:27:15;100187.28;;;14.25;85.01
53758;BME280;39674;59.860;30.672;2023-07-13T03:29:48;100190.66;;;14.27;85.68
53758;BME280;39674;59.860;30.672;2023-07-13T03:32:28;100225.03;;;14.53;85.92
53758;BME280;39674;59.860;30.672;2023-07-13T03:35:00;100189.13;;;14.36;86.25
53758;BME280;39674;59.860;30.672;2023-07-13T03:37:35;100121.78;;;14.02;87.39
53758;BME280;39674;59.860;30.672;2023-07-13T03:40:18;100192.41;;;14.51;86.77
53758;BME280;39674;59.860;30.672;2023-07-13T03:42:47;100189.53;;;14.54;86.32
53758;BME280;39674;59.860;30.672;2023-07-13T03:45:19;100213.50;;;14.66;85.93
53758;BME280;39674;59.860;30.672;2023-07-13T03:47:48;100203.59;;;14.68;83.88
53758;BME280;39674;59.860;30.672;2023-07-13T03:50:19;100238.66;;;14.96;83.97
53758;BME280;39674;59.860;30.672;2023-07-13T03:52:47;100227.56;;;15.02;82.51
53758;BME280;39674;59.860;30.672;2023-07-13T03:55:21;100119.44;;;14.44;80.59
53758;BME280;39674;59.860;30.672;2023-07-13T03:57:59;100171.50;;;14.94;79.88
53758;BME280;39674;59.860;30.672;2023-07-13T04:00:28;100210.16;;;15.20;77.80
53758;BME280;39674;59.860;30.672;2023-07-13T04:03:02;100135.19;;;14.81;78.14
53758;BME280;39674;59.860;30.672;2023-07-13T04:05:32;100154.06;;;15.12;78.98
53758;BME280;39674;59.860;30.672;2023-07-13T04:08:17;100172.19;;;15.30;77.30
53758;BME280;39674;59.860;30.672;2023-07-13T04:10:57;100113.81;;;15.05;80.15
53758;BME280;39674;59.860;30.672;2023-07-13T04:13:34;100182.06;;;15.50;79.17
53758;BME280;39674;59.860;30.672;2023-07-13T04:16:05;100110.66;;;15.12;79.21
53758;BME280;39674;59.860;30.672;2023-07-13T04:18:34;100149.44;;;15.37;77.87
53758;BME280;39674;59.860;30.672;2023-07-13T04:21:03;100147.25;;;15.42;78.89
53758;BME280;39674;59.860;30.672;2023-07-13T04:23:34;100222.25;;;16.02;78.44
53758;BME280;39674;59.860;30.672;2023-07-13T04:26:08;100129.56;;;15.52;79.39
53758;BME280;39674;59.860;30.672;2023-07-13T04:28:45;100181.31;;;16.03;76.79
53758;BME280;39674;59.860;30.672;2023-07-13T04:31:18;100220.19;;;16.39;77.54
53758;BME280;39674;59.860;30.672;2023-07-13T04:33:49;100170.69;;;16.25;76.96
53758;BME280;39674;59.860;30.672;2023-07-13T04:36:26;100198.41;;;16.55;75.65
53758;BME280;39674;59.860;30.672;2023-07-13T04:38:56;100210.44;;;16.70;71.28
53758;BME280;39674;59.860;30.672;2023-07-13T04:41:26;100146.84;;;16.44;67.89
53758;BME280;39674;59.860;30.672;2023-07-13T04:43:55;100117.34;;;16.36;66.06
53758;BME280;39674;59.860;30.672;2023-07-13T04:46:28;100107.84;;;16.43;62.87
53758;BME280;39674;59.860;30.672;2023-07-13T04:49:01;100191.81;;;17.01;66.95
53758;BME280;39674;59.860;30.672;2023-07-13T04:51:33;100157.66;;;16.95;65.29
53758;BME280;39674;59.860;30.672;2023-07-13T04:54:02;100177.56;;;17.22;63.92
53758;BME280;39674;59.860;30.672;2023-07-13T04:56:34;100172.97;;;17.43;64.00
53758;BME280;39674;59.860;30.672;2023-07-13T04:59:04;100210.03;;;17.77;61.59
53758;BME280;39674;59.860;30.672;2023-07-13T05:01:33;100180.22;;;17.72;59.50
53758;BME280;39674;59.860;30.672;2023-07-13T05:04:02;100187.00;;;17.96;58.67
53758;BME280;39674;59.860;30.672;2023-07-13T05:06:33;100135.78;;;17.61;56.18
53758;BME280;39674;59.860;30.672;2023-07-13T05:09:05;100168.41;;;17.85;55.76
53758;BME280;39674;59.860;30.672;2023-07-13T05:11:38;100173.75;;;17.75;54.79
53758;BME280;39674;59.860;30.672;2023-07-13T05:14:08;100120.44;;;17.34;55.89
53758;BME280;39674;59.860;30.672;2023-07-13T05:16:37;100205.00;;;17.94;57.64
53758;BME280;39674;59.860;30.672;2023-07-13T05:19:06;100206.69;;;17.95;57.25
53758;BME280;39674;59.860;30.672;2023-07-13T05:21:35;100145.34;;;17.64;57.80
53758;BME280;39674;59.860;30.672;2023-07-13T05:24:08;100153.22;;;17.75;57.59
53758;BME280;39674;59.860;30.672;2023-07-13T05:26:41;100204.88;;;18.05;57.55
53758;BME280;39674;59.860;30.672;2023-07-13T05:29:12;100174.03;;;17.81;57.79
53758;BME280;39674;59.860;30.672;2023-07-13T05:31:47;100165.44;;;17.68;60.05
53758;BME280;39674;59.860;30.672;2023-07-13T05:34:21;100134.50;;;17.56;60.12
53758;BME280;39674;59.860;30.672;2023-07-13T05:36:57;100107.38;;;17.41;59.13
53758;BME280;39674;59.860;30.672;2023-07-13T05:39:29;100174.03;;;17.81;58.21
53758;BME280;39674;59.860;30.672;2023-07-13T05:42:05;100220.75;;;17.97;57.71
53758;BME280;39674;59.860;30.672;2023-07-13T05:44:34;100221.84;;;17.85;57.98
53758;BME280;39674;59.860;30.672;2023-07-13T05:47:05;100230.13;;;17.81;57.74
53758;BME280;39674;59.860;30.672;2023-07-13T05:49:36;100141.19;;;17.21;58.13
53758;BME280;39674;59.860;30.672;2023-07-13T05:52:06;100192.00;;;17.60;58.62
53758;BME280;39674;59.860;30.672;2023-07-13T05:54:37;100187.78;;;17.57;58.28
53758;BME280;39674;59.860;30.672;2023-07-13T05:57:11;100222.41;;;17.78;59.78
53758;BME280;39674;59.860;30.672;2023-07-13T05:59:47;100220.44;;;17.80;60.57
53758;BME280;39674;59.860;30.672;2023-07-13T06:02:17;100215.09;;;17.80;60.60
53758;BME280;39674;59.860;30.672;2023-07-13T06:04:47;100218.19;;;17.86;60.29
53758;BME280;39674;59.860;30.672;2023-07-13T06:07:25;100224.38;;;17.86;59.90
53758;BME280;39674;59.860;30.672;2023-07-13T06:09:56;100214.66;;;17.85;58.07
53758;BME280;39674;59.860;30.672;2023-07-13T06:13:07;100163.31;;;17.72;58.78
53758;BME280;39674;59.860;30.672;2023-07-13T06:15:38;100159.13;;;17.69;58.64
53758;BME280;39674;59.860;30.672;2023-07-13T06:18:25;100114.16;;;17.55;59.10
53758;BME280;39674;59.860;30.672;2023-07-13T06:21:16;100186.19;;;18.05;57.43
53758;BME280;39674;59.860;30.672;2023-07-13T06:24:07;100122.59;;;17.60;56.71
53758;BME280;39674;59.860;30.672;2023-07-13T06:26:40;100136.34;;;17.65;58.55
53758;BME280;39674;59.860;30.672;2023-07-13T06:29:26;100120.31;;;17.65;59.78
53758;BME280;39674;59.860;30.672;2023-07-13T06:31:58;100186.19;;;18.05;60.85
53758;BME280;39674;59.860;30.672;2023-07-13T06:34:35;100231.88;;;18.41;59.53
53758;BME280;39674;59.860;30.672;2023-07-13T06:37:57;100162.28;;;18.14;58.65
53758;BME280;39674;59.860;30.672;2023-07-13T06:41:50;100124.31;;;18.00;57.37
53758;BME280;39674;59.860;30.672;2023-07-13T06:48:03;100132.88;;;18.04;58.15
53758;BME280;39674;59.860;30.672;2023-07-13T06:51:42;100186.41;;;18.41;57.95
53758;BME280;39674;59.860;30.672;2023-07-13T06:55:01;100127.66;;;18.02;58.47
53758;BME280;39674;59.860;30.672;2023-07-13T06:58:34;100241.97;;;18.77;57.70
53758;BME280;39674;59.860;30.672;2023-07-13T07:01:29;100252.00;;;18.65;57.79
53758;BME280;39674;59.860;30.672;2023-07-13T07:04:16;100211.47;;;18.40;57.44
53758;BME280;39674;59.860;30.672;2023-07-13T07:07:59;100257.03;;;18.78;57.70
53758;BME280;39674;59.860;30.672;2023-07-13T07:10:57;100195.00;;;18.35;57.95
53758;BME280;39674;59.860;30.672;2023-07-13T07:13:39;100154.09;;;18.15;58.38
53758;BME280;39674;59.860;30.672;2023-07-13T07:16:24;100213.44;;;18.58;58.22
53758;BME280;39674;59.860;30.672;2023-07-13T07:19:27;100158.16;;;18.19;58.05
53758;BME280;39674;59.860;30.672;2023-07-13T07:22:41;100261.94;;;18.83;58.78
53758;BME280;39674;59.860;30.672;2023-07-13T07:25:50;100218.22;;;18.64;58.85
53758;BME280;39674;59.860;30.672;2023-07-13T07:28:24;100234.09;;;18.75;58.57
53758;BME280;39674;59.860;30.672;2023-07-13T07:30:59;100228.03;;;18.73;57.91
53758;BME280;39674;59.860;30.672;2023-07-13T07:33:30;100199.91;;;18.59;58.24
53758;BME280;39674;59.860;30.672;2023-07-13T07:36:03;100203.41;;;18.60;58.68
53758;BME280;39674;59.860;30.672;2023-07-13T07:38:35;100225.22;;;18.75;58.97
53758;BME280;39674;59.860;30.672;2023-07-13T07:41:15;100205.81;;;18.63;58.62
53758;BME280;39674;59.860;30.672;2023-07-13T07:43:52;100268.28;;;19.01;58.99
53758;BME280;39674;59.860;30.672;2023-07-13T07:46:34;100201.19;;;18.65;58.08
53758;BME280;39674;59.860;30.672;2023-07-13T07:49:08;100230.28;;;18.78;58.31
53758;BME280;39674;59.860;30.672;2023-07-13T07:51:42;100244.63;;;18.87;60.00
53758;BME280;39674;59.860;30.672;2023-07-13T07:54:20;100161.13;;;18.36;57.41
53758;BME280;39674;59.860;30.672;2023-07-13T07:56:50;100254.78;;;18.93;58.33
53758;BME280;39674;59.860;30.672;2023-07-13T07:59:32;100278.41;;;19.07;58.25
53758;BME280;39674;59.860;30.672;2023-07-13T08:02:08;100180.50;;;18.48;58.36
53758;BME280;39674;59.860;30.672;2023-07-13T08:04:39;100265.16;;;19.06;58.60
53758;BME280;39674;59.860;30.672;2023-07-13T08:07:20;100230.09;;;18.89;58.67
53758;BME280;39674;59.860;30.672;2023-07-13T08:10:04;100233.22;;;19.04;59.16
53758;BME280;39674;59.860;30.672;2023-07-13T08:12:37;100170.66;;;18.58;59.12
53758;BME280;39674;59.860;30.672;2023-07-13T08:15:19;100231.91;;;19.08;59.88
53758;BME280;39674;59.860;30.672;2023-07-13T08:18:07;100263.78;;;19.39;58.98
53758;BME280;39674;59.860;30.672;2023-07-13T08:21:08;100236.31;;;19.37;58.86
53758;BME280;39674;59.860;30.672;2023-07-13T08:23:46;100239.06;;;19.46;58.81
53758;BME280;39674;59.860;30.672;2023-07-13T08:26:18;100229.78;;;19.50;58.23
53758;BME280;39674;59.860;30.672;2023-07-13T08:28:48;100261.88;;;19.78;59.03
53758;BME280;39674;59.860;30.672;2023-07-13T08:31:16;100215.09;;;19.54;58.93
53758;BME280;39674;59.860;30.672;2023-07-13T08:33:54;100243.53;;;19.83;57.95
53758;BME280;39674;59.860;30.672;2023-07-13T08:36:27;100263.03;;;20.03;57.61
53758;BME280;39674;59.860;30.672;2023-07-13T08:39:10;100236.84;;;19.97;58.06
53758;BME280;39674;59.860;30.672;2023-07-13T08:41:56;100158.06;;;19.62;57.72
53758;BME280;39674;59.860;30.672;2023-07-13T08:44:44;100177.16;;;19.77;57.51
53758;BME280;39674;59.860;30.672;2023-07-13T08:47:31;100268.31;;;20.49;57.58
53758;BME280;39674;59.860;30.672;2023-07-13T08:50:12;100177.34;;;19.93;56.92
53758;BME280;39674;59.860;30.672;2023-07-13T08:52:49;100263.28;;;20.46;56.67
53758;BME280;39674;59.860;30.672;2023-07-13T08:55:21;100218.84;;;20.25;56.17
53758;BME280;39674;59.860;30.672;2023-07-13T08:57:59;100267.56;;;20.75;56.32
53758;BME280;39674;59.860;30.672;2023-07-13T09:00:45;100236.28;;;20.65;55.62
53758;BME280;39674;59.860;30.672;2023-07-13T09:03:42;100247.09;;;21.00;55.84
53758;BME280;39674;59.860;30.672;2023-07-13T09:06:49;100270.75;;;21.31;55.03
53758;BME280;39674;59.860;30.672;2023-07-13T09:09:42;100222.94;;;21.35;54.76
53758;BME280;39674;59.860;30.672;2023-07-13T09:12:15;100222.00;;;21.52;53.21
53758;BME280;39674;59.860;30.672;2023-07-13T09:14:48;100202.16;;;21.45;53.47
53758;BME280;39674;59.860;30.672;2023-07-13T09:17:23;100232.53;;;21.88;53.00
53758;BME280;39674;59.860;30.672;2023-07-13T09:20:04;100169.19;;;21.69;51.79
53758;BME280;39674;59.860;30.672;2023-07-13T09:22:50;100159.28;;;21.86;53.52
53758;BME280;39674;59.860;30.672;2023-07-13T09:25:34;100240.66;;;22.79;52.14
53758;BME280;39674;59.860;30.672;2023-07-13T09:33:17;100133.66;;;23.29;49.00
53758;BME280;39674;59.860;30.672;2023-07-13T09:36:44;100143.22;;;23.32;47.50
53758;BME280;39674;59.860;30.672;2023-07-13T09:39:57;100220.53;;;23.63;47.27
53758;BME280;39674;59.860;30.672;2023-07-13T09:42:37;100156.72;;;23.32;48.62
53758;BME280;39674;59.860;30.672;2023-07-13T09:45:30;100246.41;;;24.12;48.35
53758;BME280;39674;59.860;30.672;2023-07-13T09:48:04;100191.25;;;24.14;48.25
53758;BME280;39674;59.860;30.672;2023-07-13T09:50:51;100182.13;;;24.54;46.96
53758;BME280;39674;59.860;30.672;2023-07-13T09:53:33;100231.09;;;25.19;46.78
53758;BME280;39674;59.860;30.672;2023-07-13T09:56:19;100157.50;;;24.87;46.44
53758;BME280;39674;59.860;30.672;2023-07-13T09:59:12;100185.47;;;24.94;43.97
53758;BME280;39674;59.860;30.672;2023-07-13T10:01:54;100162.66;;;24.81;46.31
53758;BME280;39674;59.860;30.672;2023-07-13T10:04:55;100191.41;;;25.34;46.40
53758;BME280;39674;59.860;30.672;2023-07-13T10:14:01;100181.16;;;25.14;43.82
53758;BME280;39674;59.860;30.672;2023-07-13T10:16:59;100139.72;;;25.37;45.29
53758;BME280;39674;59.860;30.672;2023-07-13T10:20:10;100130.06;;;25.71;43.71
53758;BME280;39674;59.860;30.672;2023-07-13T10:22:50;100193.94;;;26.09;42.80
53758;BME280;39674;59.860;30.672;2023-07-13T10:25:50;100166.38;;;26.05;43.70
53758;BME280;39674;59.860;30.672;2023-07-13T10:28:33;100132.91;;;25.85;40.83
53758;BME280;39674;59.860;30.672;2023-07-13T10:31:29;100132.91;;;26.06;41.98
53758;BME280;39674;59.860;30.672;2023-07-13T10:34:38;100205.06;;;26.42;39.84
53758;BME280;39674;59.860;30.672;2023-07-13T10:37:44;100131.34;;;25.97;41.75
53758;BME280;39674;59.860;30.672;2023-07-13T10:41:38;100133.41;;;26.17;42.24
53758;BME280;39674;59.860;30.672;2023-07-13T10:44:21;100167.16;;;26.42;41.32
53758;BME280;39674;59.860;30.672;2023-07-13T10:47:06;100179.81;;;26.35;40.39
53758;BME280;39674;59.860;30.672;2023-07-13T10:50:20;100186.03;;;26.64;41.38
53758;BME280;39674;59.860;30.672;2023-07-13T10:52:51;100211.56;;;26.77;41.21
53758;BME280;39674;59.860;30.672;2023-07-13T10:55:35;100216.78;;;27.06;42.21
53758;BME280;39674;59.860;30.672;2023-07-13T10:58:31;100193.84;;;27.09;40.68
53758;BME280;39674;59.860;30.672;2023-07-13T11:01:10;100133.59;;;26.72;40.59
53758;BME280;39674;59.860;30.672;2023-07-13T11:04:39;100154.25;;;27.15;40.54
53758;BME280;39674;59.860;30.672;2023-07-13T11:07:25;100163.44;;;27.14;39.70
53758;BME280;39674;59.860;30.672;2023-07-13T11:10:55;100132.28;;;26.96;39.26
53758;BME280;39674;59.860;30.672;2023-07-13T11:14:08;100187.94;;;26.92;40.10
53758;BME280;39674;59.860;30.672;2023-07-13T11:17:46;100126.44;;;26.57;39.89
53758;BME280;39674;59.860;30.672;2023-07-13T11:20:41;100130.28;;;26.13;38.93
53758;BME280;39674;59.860;30.672;2023-07-13T11:23:27;100149.66;;;25.95;40.47
53758;BME280;39674;59.860;30.672;2023-07-13T11:25:58;100220.75;;;26.25;41.03
53758;BME280;39674;59.860;30.672;2023-07-13T11:28:42;100118.78;;;25.89;41.03
53758;BME280;39674;59.860;30.672;2023-07-13T11:31:29;100198.34;;;25.95;40.18
53758;BME280;39674;59.860;30.672;2023-07-13T11:34:15;100148.28;;;25.11;40.98
53758;BME280;39674;59.860;30.672;2023-07-13T11:37:00;100183.38;;;25.26;42.24
53758;BME280;39674;59.860;30.672;2023-07-13T11:39:37;100224.78;;;25.11;42.65
53758;BME280;39674;59.860;30.672;2023-07-13T11:42:18;100241.56;;;25.07;43.28
53758;BME280;39674;59.860;30.672;2023-07-13T11:44:53;100206.00;;;24.65;43.87
53758;BME280;39674;59.860;30.672;2023-07-13T11:47:30;100159.47;;;24.25;44.06
53758;BME280;39674;59.860;30.672;2023-07-13T11:50:33;100181.16;;;24.31;44.13
53758;BME280;39674;59.860;30.672;2023-07-13T11:53:09;100219.41;;;24.35;44.83
53758;BME280;39674;59.860;30.672;2023-07-13T11:55:45;100245.69;;;24.41;44.86
53758;BME280;39674;59.860;30.672;2023-07-13T11:58:22;100194.78;;;23.92;44.08
53758;BME280;39674;59.860;30.672;2023-07-13T12:01:00;100192.41;;;23.88;44.53
53758;BME280;39674;59.860;30.672;2023-07-13T12:03:40;100219.56;;;24.18;45.54
53758;BME280;39674;59.860;30.672;2023-07-13T12:06:26;100196.78;;;23.90;44.42
53758;BME280;39674;59.860;30.672;2023-07-13T12:09:12;100209.13;;;23.61;44.84
53758;BME280;39674;59.860;30.672;2023-07-13T12:11:43;100200.66;;;23.32;45.78
53758;BME280;39674;59.860;30.672;2023-07-13T12:14:18;100253.94;;;23.62;46.26
53758;BME280;39674;59.860;30.672;2023-07-13T12:16:56;100212.94;;;23.35;46.53
53758;BME280;39674;59.860;30.672;2023-07-13T12:20:11;100213.09;;;23.33;46.12
53758;BME280;39674;59.860;30.672;2023-07-13T12:23:10;100234.47;;;23.75;46.81
53758;BME280;39674;59.860;30.672;2023-07-13T12:26:20;100159.47;;;23.47;46.90
53758;BME280;39674;59.860;30.672;2023-07-13T12:29:07;100260.69;;;24.21;46.67
53758;BME280;39674;59.860;30.672;2023-07-13T12:31:45;100168.28;;;23.72;46.87
53758;BME280;39674;59.860;30.672;2023-07-13T12:34:26;100162.59;;;23.67;45.75
53758;BME280;39674;59.860;30.672;2023-07-13T12:37:12;100197.13;;;23.95;46.47
53758;BME280;39674;59.860;30.672;2023-07-13T12:39:47;100226.41;;;24.06;46.27
53758;BME280;39674;59.860;30.672;2023-07-13T12:42:22;100198.19;;;23.85;46.17
53758;BME280;39674;59.860;30.672;2023-07-13T12:45:03;100157.97;;;23.44;46.03
53758;BME280;39674;59.860;30.672;2023-07-13T12:47:41;100229.91;;;23.75;46.68
53758;BME280;39674;59.860;30.672;2023-07-13T12:50:17;100224.50;;;23.75;47.12
53758;BME280;39674;59.860;30.672;2023-07-13T12:52:51;100173.13;;;23.45;48.43
53758;BME280;39674;59.860;30.672;2023-07-13T12:55:22;100166.75;;;23.46;48.33
53758;BME280;39674;59.860;30.672;2023-07-13T12:58:03;100172.03;;;23.63;47.43
53758;BME280;39674;59.860;30.672;2023-07-13T13:00:37;100149.50;;;23.55;46.69
53758;BME280;39674;59.860;30.672;2023-07-13T13:03:22;100226.03;;;24.09;47.73
53758;BME280;39674;59.860;30.672;2023-07-13T13:06:03;100180.94;;;23.95;46.83
53758;BME280;39674;59.860;30.672;2023-07-13T13:09:22;100235.75;;;24.18;46.82
53758;BME280;39674;59.860;30.672;2023-07-13T13:11:59;100184.16;;;23.67;46.58
53758;BME280;39674;59.860;30.672;2023-07-13T13:14:36;100249.47;;;24.32;46.69
53758;BME280;39674;59.860;30.672;2023-07-13T13:17:18;100133.09;;;23.42;47.35
53758;BME280;39674;59.860;30.672;2023-07-13T13:19:55;100180.22;;;23.46;47.93
53758;BME280;39674;59.860;30.672;2023-07-13T13:22:26;100186.91;;;23.50;48.50
53758;BME280;39674;59.860;30.672;2023-07-13T13:24:58;100246.34;;;23.88;48.87
53758;BME280;39674;59.860;30.672;2023-07-13T13:27:33;100185.91;;;23.51;48.73
53758;BME280;39674;59.860;30.672;2023-07-13T13:30:13;100154.09;;;23.47;48.84
53758;BME280;39674;59.860;30.672;2023-07-13T13:33:00;100162.31;;;23.53;49.23
53758;BME280;39674;59.860;30.672;2023-07-13T13:35:31;100235.56;;;23.88;48.12
53758;BME280;39674;59.860;30.672;2023-07-13T13:38:08;100145.97;;;23.23;48.20
53758;BME280;39674;59.860;30.672;2023-07-13T13:40:39;100155.72;;;23.24;48.27
53758;BME280;39674;59.860;30.672;2023-07-13T13:43:20;100144.31;;;23.22;48.31
53758;BME280;39674;59.860;30.672;2023-07-13T13:45:57;100235.47;;;23.74;48.82
53758;BME280;39674;59.860;30.672;2023-07-13T13:48:31;100167.47;;;23.32;49.57
53758;BME280;39674;59.860;30.672;2023-07-13T13:51:15;100216.50;;;23.67;49.83
53758;BME280;39674;59.860;30.672;2023-07-13T13:53:47;100244.81;;;23.63;50.66
53758;BME280;39674;59.860;30.672;2023-07-13T13:56:20;100226.72;;;23.40;51.07
53758;BME280;39674;59.860;30.672;2023-07-13T13:58:56;100150.53;;;22.67;51.38
53758;BME280;39674;59.860;30.672;2023-07-13T14:01:35;100204.72;;;22.55;52.51
53758;BME280;39674;59.860;30.672;2023-07-13T14:04:17;100254.47;;;22.68;54.13
53758;BME280;39674;59.860;30.672;2023-07-13T14:06:58;100250.47;;;22.64;54.11